sensor_id;sensor_type;location;lat;lon;timestamp;temperature;humidity
69503;SHT31;56704;54.242;12.442;2023-02-28T00:00:48;0.46;86.55
69503;SHT31;56704;54.242;12.442;2023-02-28T00:03:15;0.45;86.15
69503;SHT31;56704;54.242;12.442;2023-02-28T00:05:41;0.45;86.14
69503;SHT31;56704;54.242;12.442;2023-02-28T00:08:08;0.41;86.10
69503;SHT31;56704;54.242;12.442;2023-02-28T00:10:37;0.40;86.02
69503;SHT31;56704;54.242;12.442;2023-02-28T00:13:05;0.37;86.00
69503;SHT31;56704;54.242;12.442;2023-02-28T00:15:33;0.41;85.92
69503;SHT31;56704;54.242;12.442;2023-02-28T00:18:00;0.41;85.90
69503;SHT31;56704;54.242;12.442;2023-02-28T00:20:27;0.41;85.81
69503;SHT31;56704;54.242;12.442;2023-02-28T00:22:54;0.38;85.88
69503;SHT31;56704;54.242;12.442;2023-02-28T00:25:22;0.38;85.98
69503;SHT31;56704;54.242;12.442;2023-02-28T00:27:49;0.35;85.96
69503;SHT31;56704;54.242;12.442;2023-02-28T00:30:17;0.34;85.35
69503;SHT31;56704;54.242;12.442;2023-02-28T00:32:45;0.31;85.28
69503;SHT31;56704;54.242;12.442;2023-02-28T00:35:12;0.29;85.27
69503;SHT31;56704;54.242;12.442;2023-02-28T00:37:39;0.28;85.25
69503;SHT31;56704;54.242;12.442;2023-02-28T00:40:06;0.21;85.30
69503;SHT31;56704;54.242;12.442;2023-02-28T00:42:34;0.21;85.49
69503;SHT31;56704;54.242;12.442;2023-02-28T00:45:01;0.10;85.76
69503;SHT31;56704;54.242;12.442;2023-02-28T00:47:29;0.00;85.98
69503;SHT31;56704;54.242;12.442;2023-02-28T00:49:57;-0.06;85.87
69503;SHT31;56704;54.242;12.442;2023-02-28T00:52:25;-0.14;86.20
69503;SHT31;56704;54.242;12.442;2023-02-28T00:54:52;-0.23;86.25
69503;SHT31;56704;54.242;12.442;2023-02-28T00:57:19;-0.25;86.35
69503;SHT31;56704;54.242;12.442;2023-02-28T00:59:45;-0.34;86.69
69503;SHT31;56704;54.242;12.442;2023-02-28T01:02:12;-0.41;86.81
69503;SHT31;56704;54.242;12.442;2023-02-28T01:04:39;-0.41;86.88
69503;SHT31;56704;54.242;12.442;2023-02-28T01:07:06;-0.47;86.97
69503;SHT31;56704;54.242;12.442;2023-02-28T01:09:33;-0.53;86.94
69503;SHT31;56704;54.242;12.442;2023-02-28T01:12:00;-0.58;87.20
69503;SHT31;56704;54.242;12.442;2023-02-28T01:14:26;-0.64;87.66
69503;SHT31;56704;54.242;12.442;2023-02-28T01:16:53;-0.60;87.70
69503;SHT31;56704;54.242;12.442;2023-02-28T01:19:19;-0.66;87.37
69503;SHT31;56704;54.242;12.442;2023-02-28T01:21:46;-0.75;87.58
69503;SHT31;56704;54.242;12.442;2023-02-28T01:24:14;-0.76;88.06
69503;SHT31;56704;54.242;12.442;2023-02-28T01:26:40;-0.79;88.30
69503;SHT31;56704;54.242;12.442;2023-02-28T01:29:07;-0.89;87.90
69503;SHT31;56704;54.242;12.442;2023-02-28T01:31:34;-0.89;88.20
69503;SHT31;56704;54.242;12.442;2023-02-28T01:34:01;-0.91;88.12
69503;SHT31;56704;54.242;12.442;2023-02-28T01:36:28;-0.93;88.20
69503;SHT31;56704;54.242;12.442;2023-02-28T01:38:55;-0.99;88.27
69503;SHT31;56704;54.242;12.442;2023-02-28T01:41:24;-1.05;88.12
69503;SHT31;56704;54.242;12.442;2023-02-28T01:43:58;-1.07;88.24
69503;SHT31;56704;54.242;12.442;2023-02-28T01:46:28;-1.16;88.26
69503;SHT31;56704;54.242;12.442;2023-02-28T01:48:59;-1.19;88.31
69503;SHT31;56704;54.242;12.442;2023-02-28T01:51:30;-1.20;88.37
69503;SHT31;56704;54.242;12.442;2023-02-28T01:54:00;-1.21;88.43
69503;SHT31;56704;54.242;12.442;2023-02-28T01:56:33;-1.26;88.49
69503;SHT31;56704;54.242;12.442;2023-02-28T01:59:02;-1.26;88.55
69503;SHT31;56704;54.242;12.442;2023-02-28T02:01:30;-1.27;88.51
69503;SHT31;56704;54.242;12.442;2023-02-28T02:03:59;-1.30;88.92
69503;SHT31;56704;54.242;12.442;2023-02-28T02:06:30;-1.36;88.80
69503;SHT31;56704;54.242;12.442;2023-02-28T02:08:59;-1.42;88.78
69503;SHT31;56704;54.242;12.442;2023-02-28T02:11:26;-1.47;88.85
69503;SHT31;56704;54.242;12.442;2023-02-28T02:14:10;-1.50;89.45
69503;SHT31;56704;54.242;12.442;2023-02-28T02:16:52;-1.48;89.42
69503;SHT31;56704;54.242;12.442;2023-02-28T02:19:41;-1.53;89.48
69503;SHT31;56704;54.242;12.442;2023-02-28T02:22:37;-1.54;89.98
69503;SHT31;56704;54.242;12.442;2023-02-28T02:25:28;-1.54;89.51
69503;SHT31;56704;54.242;12.442;2023-02-28T02:28:22;-1.60;89.57
69503;SHT31;56704;54.242;12.442;2023-02-28T02:31:31;-1.65;89.99
69503;SHT31;56704;54.242;12.442;2023-02-28T02:37:17;-1.74;90.20
69503;SHT31;56704;54.242;12.442;2023-02-28T02:39:49;-1.75;89.68
69503;SHT31;56704;54.242;12.442;2023-02-28T02:42:23;-1.77;89.78
69503;SHT31;56704;54.242;12.442;2023-02-28T02:44:56;-1.85;89.66
69503;SHT31;56704;54.242;12.442;2023-02-28T02:47:28;-1.91;89.72
69503;SHT31;56704;54.242;12.442;2023-02-28T02:49:59;-1.88;89.66
69503;SHT31;56704;54.242;12.442;2023-02-28T02:52:32;-1.85;89.85
69503;SHT31;56704;54.242;12.442;2023-02-28T02:55:02;-1.86;89.46
69503;SHT31;56704;54.242;12.442;2023-02-28T02:57:33;-1.92;89.60
69503;SHT31;56704;54.242;12.442;2023-02-28T03:00:03;-1.95;89.57
69503;SHT31;56704;54.242;12.442;2023-02-28T03:02:34;-1.94;89.90
69503;SHT31;56704;54.242;12.442;2023-02-28T03:05:06;-1.92;89.95
69503;SHT31;56704;54.242;12.442;2023-02-28T03:07:34;-1.95;89.94
69503;SHT31;56704;54.242;12.442;2023-02-28T03:10:01;-1.98;90.11
69503;SHT31;56704;54.242;12.442;2023-02-28T03:12:33;-1.89;91.37
69503;SHT31;56704;54.242;12.442;2023-02-28T03:15:11;-1.92;90.85
69503;SHT31;56704;54.242;12.442;2023-02-28T03:17:53;-1.94;90.91
69503;SHT31;56704;54.242;12.442;2023-02-28T03:20:33;-1.99;91.07
69503;SHT31;56704;54.242;12.442;2023-02-28T03:23:10;-2.03;90.88
69503;SHT31;56704;54.242;12.442;2023-02-28T03:25:47;-2.13;90.35
69503;SHT31;56704;54.242;12.442;2023-02-28T03:28:18;-2.18;90.46
69503;SHT31;56704;54.242;12.442;2023-02-28T03:30:51;-2.18;90.93
69503;SHT31;56704;54.242;12.442;2023-02-28T03:33:22;-2.16;91.14
69503;SHT31;56704;54.242;12.442;2023-02-28T03:35:52;-2.19;91.17
69503;SHT31;56704;54.242;12.442;2023-02-28T03:38:23;-2.19;91.25
69503;SHT31;56704;54.242;12.442;2023-02-28T03:40:55;-2.26;90.80
69503;SHT31;56704;54.242;12.442;2023-02-28T03:43:28;-2.21;91.03
69503;SHT31;56704;54.242;12.442;2023-02-28T03:45:56;-2.28;90.83
69503;SHT31;56704;54.242;12.442;2023-02-28T03:48:26;-2.36;90.85
69503;SHT31;56704;54.242;12.442;2023-02-28T03:50:57;-2.37;90.71
69503;SHT31;56704;54.242;12.442;2023-02-28T03:53:27;-2.40;90.85
69503;SHT31;56704;54.242;12.442;2023-02-28T03:55:59;-2.47;90.72
69503;SHT31;56704;54.242;12.442;2023-02-28T03:58:32;-2.47;91.16
69503;SHT31;56704;54.242;12.442;2023-02-28T04:01:07;-2.49;91.16
69503;SHT31;56704;54.242;12.442;2023-02-28T04:03:35;-2.50;91.08
69503;SHT31;56704;54.242;12.442;2023-02-28T04:06:04;-2.54;91.20
69503;SHT31;56704;54.242;12.442;2023-02-28T04:08:32;-2.56;91.56
69503;SHT31;56704;54.242;12.442;2023-02-28T04:11:02;-2.54;91.65
69503;SHT31;56704;54.242;12.442;2023-02-28T04:13:31;-2.56;91.40
69503;SHT31;56704;54.242;12.442;2023-02-28T04:15:57;-2.53;91.63
69503;SHT31;56704;54.242;12.442;2023-02-28T04:18:24;-2.57;91.16
69503;SHT31;56704;54.242;12.442;2023-02-28T04:20:51;-2.64;91.32
69503;SHT31;56704;54.242;12.442;2023-02-28T04:23:19;-2.66;91.29
69503;SHT31;56704;54.242;12.442;2023-02-28T04:25:45;-2.64;91.30
69503;SHT31;56704;54.242;12.442;2023-02-28T04:28:12;-2.64;91.20
69503;SHT31;56704;54.242;12.442;2023-02-28T04:30:38;-2.67;91.13
69503;SHT31;56704;54.242;12.442;2023-02-28T04:33:05;-2.70;91.23
69503;SHT31;56704;54.242;12.442;2023-02-28T04:35:32;-2.71;91.07
69503;SHT31;56704;54.242;12.442;2023-02-28T04:37:58;-2.70;91.11
69503;SHT31;56704;54.242;12.442;2023-02-28T04:40:26;-2.70;91.00
69503;SHT31;56704;54.242;12.442;2023-02-28T04:42:53;-2.70;91.00
69503;SHT31;56704;54.242;12.442;2023-02-28T04:45:19;-2.74;90.95
69503;SHT31;56704;54.242;12.442;2023-02-28T04:47:46;-2.74;91.04
69503;SHT31;56704;54.242;12.442;2023-02-28T04:50:12;-2.73;90.84
69503;SHT31;56704;54.242;12.442;2023-02-28T04:52:39;-2.76;90.78
69503;SHT31;56704;54.242;12.442;2023-02-28T04:55:06;-2.81;90.87
69503;SHT31;56704;54.242;12.442;2023-02-28T04:57:34;-2.85;90.91
69503;SHT31;56704;54.242;12.442;2023-02-28T05:00:03;-2.88;90.85
69503;SHT31;56704;54.242;12.442;2023-02-28T05:02:37;-2.89;90.97
69503;SHT31;56704;54.242;12.442;2023-02-28T05:05:04;-2.89;90.89
69503;SHT31;56704;54.242;12.442;2023-02-28T05:07:30;-2.91;90.78
69503;SHT31;56704;54.242;12.442;2023-02-28T05:09:57;-2.85;90.75
69503;SHT31;56704;54.242;12.442;2023-02-28T05:12:24;-2.84;90.70
69503;SHT31;56704;54.242;12.442;2023-02-28T05:14:52;-2.89;90.57
69503;SHT31;56704;54.242;12.442;2023-02-28T05:17:18;-2.94;90.77
69503;SHT31;56704;54.242;12.442;2023-02-28T05:19:45;-2.94;90.48
69503;SHT31;56704;54.242;12.442;2023-02-28T05:22:15;-2.97;90.35
69503;SHT31;56704;54.242;12.442;2023-02-28T05:24:42;-2.98;91.02
69503;SHT31;56704;54.242;12.442;2023-02-28T05:27:09;-3.04;90.88
69503;SHT31;56704;54.242;12.442;2023-02-28T05:29:36;-3.08;91.18
69503;SHT31;56704;54.242;12.442;2023-02-28T05:32:09;-3.09;91.15
69503;SHT31;56704;54.242;12.442;2023-02-28T05:34:36;-3.07;90.96
69503;SHT31;56704;54.242;12.442;2023-02-28T05:37:03;-3.11;90.81
69503;SHT31;56704;54.242;12.442;2023-02-28T05:39:29;-3.13;90.87
69503;SHT31;56704;54.242;12.442;2023-02-28T05:41:56;-3.18;90.93
69503;SHT31;56704;54.242;12.442;2023-02-28T05:44:23;-3.18;90.93
69503;SHT31;56704;54.242;12.442;2023-02-28T05:46:49;-3.22;90.96
69503;SHT31;56704;54.242;12.442;2023-02-28T05:49:17;-3.25;91.00
69503;SHT31;56704;54.242;12.442;2023-02-28T05:51:44;-3.16;91.14
69503;SHT31;56704;54.242;12.442;2023-02-28T05:54:10;-3.20;90.98
69503;SHT31;56704;54.242;12.442;2023-02-28T05:56:37;-3.20;90.85
69503;SHT31;56704;54.242;12.442;2023-02-28T05:59:05;-3.23;91.07
69503;SHT31;56704;54.242;12.442;2023-02-28T06:01:34;-3.20;91.29
69503;SHT31;56704;54.242;12.442;2023-02-28T06:04:01;-3.22;91.15
69503;SHT31;56704;54.242;12.442;2023-02-28T06:06:29;-3.16;91.32
69503;SHT31;56704;54.242;12.442;2023-02-28T06:08:56;-3.15;91.66
69503;SHT31;56704;54.242;12.442;2023-02-28T06:11:23;-3.16;91.33
69503;SHT31;56704;54.242;12.442;2023-02-28T06:13:53;-3.20;90.98
69503;SHT31;56704;54.242;12.442;2023-02-28T06:16:20;-3.22;91.09
69503;SHT31;56704;54.242;12.442;2023-02-28T06:18:46;-3.25;91.15
69503;SHT31;56704;54.242;12.442;2023-02-28T06:21:13;-3.25;91.11
69503;SHT31;56704;54.242;12.442;2023-02-28T06:23:41;-3.23;91.70
69503;SHT31;56704;54.242;12.442;2023-02-28T06:26:08;-3.19;91.88
69503;SHT31;56704;54.242;12.442;2023-02-28T06:28:34;-3.19;91.75
69503;SHT31;56704;54.242;12.442;2023-02-28T06:31:06;-3.12;91.72
69503;SHT31;56704;54.242;12.442;2023-02-28T06:33:33;-3.04;92.11
69503;SHT31;56704;54.242;12.442;2023-02-28T06:35:59;-2.98;92.44
69503;SHT31;56704;54.242;12.442;2023-02-28T06:38:26;-2.98;91.94
69503;SHT31;56704;54.242;12.442;2023-02-28T06:40:56;-3.01;91.96
69503;SHT31;56704;54.242;12.442;2023-02-28T06:43:24;-2.89;91.98
69503;SHT31;56704;54.242;12.442;2023-02-28T06:45:54;-2.76;91.54
69503;SHT31;56704;54.242;12.442;2023-02-28T06:48:21;-2.67;91.20
69503;SHT31;56704;54.242;12.442;2023-02-28T06:50:47;-2.56;91.46
69503;SHT31;56704;54.242;12.442;2023-02-28T06:53:14;-2.50;91.39
69503;SHT31;56704;54.242;12.442;2023-02-28T06:55:41;-2.45;91.04
69503;SHT31;56704;54.242;12.442;2023-02-28T06:58:09;-2.37;91.24
69503;SHT31;56704;54.242;12.442;2023-02-28T07:00:44;-2.30;90.91
69503;SHT31;56704;54.242;12.442;2023-02-28T07:03:12;-2.26;90.63
69503;SHT31;56704;54.242;12.442;2023-02-28T07:05:40;-2.18;91.13
69503;SHT31;56704;54.242;12.442;2023-02-28T07:08:07;-2.12;91.09
69503;SHT31;56704;54.242;12.442;2023-02-28T07:10:33;-2.03;90.72
69503;SHT31;56704;54.242;12.442;2023-02-28T07:13:00;-1.91;90.39
69503;SHT31;56704;54.242;12.442;2023-02-28T07:15:28;-1.79;90.56
69503;SHT31;56704;54.242;12.442;2023-02-28T07:17:55;-1.63;90.40
69503;SHT31;56704;54.242;12.442;2023-02-28T07:20:22;-1.43;90.27
69503;SHT31;56704;54.242;12.442;2023-02-28T07:22:49;-1.29;89.01
69503;SHT31;56704;54.242;12.442;2023-02-28T07:25:21;-1.15;88.86
69503;SHT31;56704;54.242;12.442;2023-02-28T07:27:48;-1.03;89.18
69503;SHT31;56704;54.242;12.442;2023-02-28T07:30:15;-0.38;90.27
69503;SHT31;56704;54.242;12.442;2023-02-28T07:32:43;-0.42;87.54
69503;SHT31;56704;54.242;12.442;2023-02-28T07:35:09;-0.38;87.20
69503;SHT31;56704;54.242;12.442;2023-02-28T07:37:36;-0.33;87.07
69503;SHT31;56704;54.242;12.442;2023-02-28T07:40:03;-0.24;86.65
69503;SHT31;56704;54.242;12.442;2023-02-28T07:42:33;-0.17;86.82
69503;SHT31;56704;54.242;12.442;2023-02-28T07:45:00;-0.09;86.73
69503;SHT31;56704;54.242;12.442;2023-02-28T07:47:28;0.01;86.36
69503;SHT31;56704;54.242;12.442;2023-02-28T07:49:57;0.18;86.60
69503;SHT31;56704;54.242;12.442;2023-02-28T07:52:23;0.25;85.55
69503;SHT31;56704;54.242;12.442;2023-02-28T07:54:50;0.40;85.59
69503;SHT31;56704;54.242;12.442;2023-02-28T07:57:17;0.46;85.00
69503;SHT31;56704;54.242;12.442;2023-02-28T07:59:44;1.04;86.34
69503;SHT31;56704;54.242;12.442;2023-02-28T08:02:12;1.20;83.76
69503;SHT31;56704;54.242;12.442;2023-02-28T08:04:40;1.67;82.90
69503;SHT31;56704;54.242;12.442;2023-02-28T08:07:08;1.69;82.08
69503;SHT31;56704;54.242;12.442;2023-02-28T08:09:35;1.86;81.45
69503;SHT31;56704;54.242;12.442;2023-02-28T08:12:01;1.91;81.21
69503;SHT31;56704;54.242;12.442;2023-02-28T08:14:28;1.95;80.80
69503;SHT31;56704;54.242;12.442;2023-02-28T08:16:55;2.01;80.80
69503;SHT31;56704;54.242;12.442;2023-02-28T08:19:21;2.07;80.20
69503;SHT31;56704;54.242;12.442;2023-02-28T08:21:48;2.17;80.29
69503;SHT31;56704;54.242;12.442;2023-02-28T08:24:16;2.36;80.13
69503;SHT31;56704;54.242;12.442;2023-02-28T08:26:42;2.47;79.27
69503;SHT31;56704;54.242;12.442;2023-02-28T08:29:09;2.60;79.81
69503;SHT31;56704;54.242;12.442;2023-02-28T08:31:35;2.77;79.13
69503;SHT31;56704;54.242;12.442;2023-02-28T08:34:05;2.89;79.00
69503;SHT31;56704;54.242;12.442;2023-02-28T08:36:31;3.20;77.96
69503;SHT31;56704;54.242;12.442;2023-02-28T08:38:58;3.28;77.16
69503;SHT31;56704;54.242;12.442;2023-02-28T08:41:26;3.50;76.70
69503;SHT31;56704;54.242;12.442;2023-02-28T08:43:53;3.77;76.43
69503;SHT31;56704;54.242;12.442;2023-02-28T08:46:20;4.02;75.98
69503;SHT31;56704;54.242;12.442;2023-02-28T08:48:47;4.31;75.04
69503;SHT31;56704;54.242;12.442;2023-02-28T08:51:15;4.53;74.03
69503;SHT31;56704;54.242;12.442;2023-02-28T08:53:44;4.59;70.30
69503;SHT31;56704;54.242;12.442;2023-02-28T08:56:12;4.58;72.59
69503;SHT31;56704;54.242;12.442;2023-02-28T08:58:41;4.68;72.08
69503;SHT31;56704;54.242;12.442;2023-02-28T09:01:09;4.83;71.15
69503;SHT31;56704;54.242;12.442;2023-02-28T09:03:35;4.99;70.65
69503;SHT31;56704;54.242;12.442;2023-02-28T09:06:02;5.16;70.98
69503;SHT31;56704;54.242;12.442;2023-02-28T09:08:31;5.16;69.37
69503;SHT31;56704;54.242;12.442;2023-02-28T09:10:58;5.39;68.19
69503;SHT31;56704;54.242;12.442;2023-02-28T09:13:25;5.38;69.27
69503;SHT31;56704;54.242;12.442;2023-02-28T09:15:54;5.55;69.55
69503;SHT31;56704;54.242;12.442;2023-02-28T09:18:23;5.65;67.44
69503;SHT31;56704;54.242;12.442;2023-02-28T09:20:49;5.60;67.66
69503;SHT31;56704;54.242;12.442;2023-02-28T09:23:16;5.86;67.69
69503;SHT31;56704;54.242;12.442;2023-02-28T09:25:47;6.07;66.44
69503;SHT31;56704;54.242;12.442;2023-02-28T09:28:16;6.34;67.09
69503;SHT31;56704;54.242;12.442;2023-02-28T09:30:45;6.54;65.80
69503;SHT31;56704;54.242;12.442;2023-02-28T09:33:14;6.84;64.12
69503;SHT31;56704;54.242;12.442;2023-02-28T09:35:41;6.95;64.70
69503;SHT31;56704;54.242;12.442;2023-02-28T09:38:08;7.30;64.31
69503;SHT31;56704;54.242;12.442;2023-02-28T09:40:37;7.54;58.96
69503;SHT31;56704;54.242;12.442;2023-02-28T09:43:04;7.59;60.34
69503;SHT31;56704;54.242;12.442;2023-02-28T09:45:33;7.64;60.47
69503;SHT31;56704;54.242;12.442;2023-02-28T09:48:03;7.80;63.47
69503;SHT31;56704;54.242;12.442;2023-02-28T09:50:34;8.24;62.15
69503;SHT31;56704;54.242;12.442;2023-02-28T09:53:06;8.56;59.53
69503;SHT31;56704;54.242;12.442;2023-02-28T09:55:39;8.79;59.05
69503;SHT31;56704;54.242;12.442;2023-02-28T09:58:16;8.94;58.57
69503;SHT31;56704;54.242;12.442;2023-02-28T10:00:51;9.17;57.25
69503;SHT31;56704;54.242;12.442;2023-02-28T10:03:28;9.42;57.13
69503;SHT31;56704;54.242;12.442;2023-02-28T10:06:03;9.73;56.59
69503;SHT31;56704;54.242;12.442;2023-02-28T10:08:35;10.01;54.54
69503;SHT31;56704;54.242;12.442;2023-02-28T10:11:07;10.14;53.17
69503;SHT31;56704;54.242;12.442;2023-02-28T10:13:37;10.14;54.09
69503;SHT31;56704;54.242;12.442;2023-02-28T10:16:11;10.38;52.29
69503;SHT31;56704;54.242;12.442;2023-02-28T10:18:42;10.40;53.18
69503;SHT31;56704;54.242;12.442;2023-02-28T10:21:18;10.78;52.70
69503;SHT31;56704;54.242;12.442;2023-02-28T10:23:48;10.81;51.13
69503;SHT31;56704;54.242;12.442;2023-02-28T10:26:17;11.16;50.12
69503;SHT31;56704;54.242;12.442;2023-02-28T10:28:44;11.20;49.37
69503;SHT31;56704;54.242;12.442;2023-02-28T10:31:15;11.08;48.91
69503;SHT31;56704;54.242;12.442;2023-02-28T10:33:43;11.10;48.12
69503;SHT31;56704;54.242;12.442;2023-02-28T10:36:14;10.64;45.44
69503;SHT31;56704;54.242;12.442;2023-02-28T10:38:42;10.55;48.80
69503;SHT31;56704;54.242;12.442;2023-02-28T10:41:11;10.34;48.84
69503;SHT31;56704;54.242;12.442;2023-02-28T10:43:39;10.82;50.48
69503;SHT31;56704;54.242;12.442;2023-02-28T10:46:12;11.03;47.22
69503;SHT31;56704;54.242;12.442;2023-02-28T10:48:41;11.30;50.29
69503;SHT31;56704;54.242;12.442;2023-02-28T10:51:10;11.73;48.02
69503;SHT31;56704;54.242;12.442;2023-02-28T10:53:48;12.19;47.55
69503;SHT31;56704;54.242;12.442;2023-02-28T10:56:17;12.48;46.94
69503;SHT31;56704;54.242;12.442;2023-02-28T10:58:54;12.69;47.36
69503;SHT31;56704;54.242;12.442;2023-02-28T11:01:23;12.80;48.00
69503;SHT31;56704;54.242;12.442;2023-02-28T11:03:52;12.40;46.36
69503;SHT31;56704;54.242;12.442;2023-02-28T11:06:20;12.43;47.73
69503;SHT31;56704;54.242;12.442;2023-02-28T11:08:52;12.77;46.14
69503;SHT31;56704;54.242;12.442;2023-02-28T11:11:21;12.96;41.86
69503;SHT31;56704;54.242;12.442;2023-02-28T11:13:51;13.12;45.50
69503;SHT31;56704;54.242;12.442;2023-02-28T11:16:19;13.48;46.13
69503;SHT31;56704;54.242;12.442;2023-02-28T11:18:48;13.89;44.59
69503;SHT31;56704;54.242;12.442;2023-02-28T11:21:19;14.06;43.05
69503;SHT31;56704;54.242;12.442;2023-02-28T11:23:48;13.85;43.26
69503;SHT31;56704;54.242;12.442;2023-02-28T11:26:16;13.61;43.15
69503;SHT31;56704;54.242;12.442;2023-02-28T11:28:44;13.75;44.39
69503;SHT31;56704;54.242;12.442;2023-02-28T11:31:16;13.72;44.81
69503;SHT31;56704;54.242;12.442;2023-02-28T11:33:48;13.69;44.18
69503;SHT31;56704;54.242;12.442;2023-02-28T11:36:19;14.10;42.63
69503;SHT31;56704;54.242;12.442;2023-02-28T11:38:47;14.19;41.51
69503;SHT31;56704;54.242;12.442;2023-02-28T11:41:34;14.45;41.35
69503;SHT31;56704;54.242;12.442;2023-02-28T11:44:16;14.67;39.99
69503;SHT31;56704;54.242;12.442;2023-02-28T11:46:49;14.98;41.77
69503;SHT31;56704;54.242;12.442;2023-02-28T11:49:26;15.25;39.95
69503;SHT31;56704;54.242;12.442;2023-02-28T11:51:59;15.30;40.95
69503;SHT31;56704;54.242;12.442;2023-02-28T11:54:35;15.33;40.23
69503;SHT31;56704;54.242;12.442;2023-02-28T11:57:19;15.28;39.75
69503;SHT31;56704;54.242;12.442;2023-02-28T11:59:56;15.44;40.36
69503;SHT31;56704;54.242;12.442;2023-02-28T12:02:28;15.61;40.81
69503;SHT31;56704;54.242;12.442;2023-02-28T12:05:19;15.70;38.57
69503;SHT31;56704;54.242;12.442;2023-02-28T12:07:56;15.29;37.32
69503;SHT31;56704;54.242;12.442;2023-02-28T12:10:26;14.71;38.78
69503;SHT31;56704;54.242;12.442;2023-02-28T12:13:09;14.79;39.85
69503;SHT31;56704;54.242;12.442;2023-02-28T12:15:59;14.96;42.08
69503;SHT31;56704;54.242;12.442;2023-02-28T12:21:36;15.80;39.64
69503;SHT31;56704;54.242;12.442;2023-02-28T12:24:18;15.16;41.79
69503;SHT31;56704;54.242;12.442;2023-02-28T12:26:48;14.91;39.15
69503;SHT31;56704;54.242;12.442;2023-02-28T12:29:20;14.91;42.18
69503;SHT31;56704;54.242;12.442;2023-02-28T12:31:52;15.44;40.06
69503;SHT31;56704;54.242;12.442;2023-02-28T12:34:22;15.59;40.72
69503;SHT31;56704;54.242;12.442;2023-02-28T12:36:51;15.87;41.25
69503;SHT31;56704;54.242;12.442;2023-02-28T12:39:21;16.05;39.88
69503;SHT31;56704;54.242;12.442;2023-02-28T12:41:53;15.81;39.97
69503;SHT31;56704;54.242;12.442;2023-02-28T12:44:26;15.71;39.16
69503;SHT31;56704;54.242;12.442;2023-02-28T12:46:56;15.96;39.09
69503;SHT31;56704;54.242;12.442;2023-02-28T12:49:28;16.26;37.92
69503;SHT31;56704;54.242;12.442;2023-02-28T12:51:57;16.70;39.49
69503;SHT31;56704;54.242;12.442;2023-02-28T12:54:28;17.14;36.97
69503;SHT31;56704;54.242;12.442;2023-02-28T12:57:04;17.51;36.68
69503;SHT31;56704;54.242;12.442;2023-02-28T12:59:37;17.61;34.77
69503;SHT31;56704;54.242;12.442;2023-02-28T13:03:01;18.32;34.34
69503;SHT31;56704;54.242;12.442;2023-02-28T13:05:45;18.38;33.22
69503;SHT31;56704;54.242;12.442;2023-02-28T13:08:38;19.25;31.84
69503;SHT31;56704;54.242;12.442;2023-02-28T13:11:23;19.97;31.45
69503;SHT31;56704;54.242;12.442;2023-02-28T13:13:57;19.73;30.36
69503;SHT31;56704;54.242;12.442;2023-02-28T13:16:25;20.03;31.12
69503;SHT31;56704;54.242;12.442;2023-02-28T13:18:52;19.83;31.60
69503;SHT31;56704;54.242;12.442;2023-02-28T13:21:42;20.00;31.61
69503;SHT31;56704;54.242;12.442;2023-02-28T13:24:10;19.94;30.49
69503;SHT31;56704;54.242;12.442;2023-02-28T13:29:52;20.61;32.44
69503;SHT31;56704;54.242;12.442;2023-02-28T13:32:32;20.82;29.64
69503;SHT31;56704;54.242;12.442;2023-02-28T13:35:38;20.76;30.87
69503;SHT31;56704;54.242;12.442;2023-02-28T13:38:24;20.51;30.42
69503;SHT31;56704;54.242;12.442;2023-02-28T13:40:51;20.44;30.62
69503;SHT31;56704;54.242;12.442;2023-02-28T13:43:18;20.42;31.79
69503;SHT31;56704;54.242;12.442;2023-02-28T13:46:07;20.90;30.36
69503;SHT31;56704;54.242;12.442;2023-02-28T13:48:36;20.93;31.46
69503;SHT31;56704;54.242;12.442;2023-02-28T13:54:24;20.64;30.02
69503;SHT31;56704;54.242;12.442;2023-02-28T13:57:04;19.84;30.06
69503;SHT31;56704;54.242;12.442;2023-02-28T13:59:43;19.39;31.64
69503;SHT31;56704;54.242;12.442;2023-02-28T14:02:37;19.23;31.63
69503;SHT31;56704;54.242;12.442;2023-02-28T14:05:13;19.94;33.93
69503;SHT31;56704;54.242;12.442;2023-02-28T14:07:44;20.32;31.12
69503;SHT31;56704;54.242;12.442;2023-02-28T14:10:23;19.87;32.47
69503;SHT31;56704;54.242;12.442;2023-02-28T14:12:58;20.11;32.14
69503;SHT31;56704;54.242;12.442;2023-02-28T14:15:37;19.93;31.98
69503;SHT31;56704;54.242;12.442;2023-02-28T14:18:11;19.86;31.39
69503;SHT31;56704;54.242;12.442;2023-02-28T14:20:43;19.83;31.52
69503;SHT31;56704;54.242;12.442;2023-02-28T14:23:15;19.55;31.37
69503;SHT31;56704;54.242;12.442;2023-02-28T14:25:48;18.89;32.19
69503;SHT31;56704;54.242;12.442;2023-02-28T14:28:23;17.90;36.11
69503;SHT31;56704;54.242;12.442;2023-02-28T14:31:01;17.38;35.97
69503;SHT31;56704;54.242;12.442;2023-02-28T14:33:53;16.59;37.33
69503;SHT31;56704;54.242;12.442;2023-02-28T14:36:30;16.42;37.69
69503;SHT31;56704;54.242;12.442;2023-02-28T14:39:00;15.94;37.79
69503;SHT31;56704;54.242;12.442;2023-02-28T14:41:30;15.73;39.46
69503;SHT31;56704;54.242;12.442;2023-02-28T14:43:59;15.76;40.68
69503;SHT31;56704;54.242;12.442;2023-02-28T14:46:30;15.74;42.02
69503;SHT31;56704;54.242;12.442;2023-02-28T14:49:00;15.74;39.34
69503;SHT31;56704;54.242;12.442;2023-02-28T14:51:28;15.74;40.42
69503;SHT31;56704;54.242;12.442;2023-02-28T14:53:58;16.05;39.27
69503;SHT31;56704;54.242;12.442;2023-02-28T14:56:30;16.18;39.52
69503;SHT31;56704;54.242;12.442;2023-02-28T14:58:58;15.93;37.33
69503;SHT31;56704;54.242;12.442;2023-02-28T15:01:26;16.21;38.29
69503;SHT31;56704;54.242;12.442;2023-02-28T15:04:01;16.15;38.28
69503;SHT31;56704;54.242;12.442;2023-02-28T15:06:31;15.96;37.81
69503;SHT31;56704;54.242;12.442;2023-02-28T15:09:13;15.96;38.54
69503;SHT31;56704;54.242;12.442;2023-02-28T15:11:41;15.60;38.93
69503;SHT31;56704;54.242;12.442;2023-02-28T15:14:15;15.05;39.33
69503;SHT31;56704;54.242;12.442;2023-02-28T15:16:44;14.69;39.38
69503;SHT31;56704;54.242;12.442;2023-02-28T15:19:14;14.17;42.17
69503;SHT31;56704;54.242;12.442;2023-02-28T15:21:48;13.91;42.85
69503;SHT31;56704;54.242;12.442;2023-02-28T15:24:19;13.44;43.96
69503;SHT31;56704;54.242;12.442;2023-02-28T15:26:54;13.11;42.65
69503;SHT31;56704;54.242;12.442;2023-02-28T15:29:24;12.87;45.62
69503;SHT31;56704;54.242;12.442;2023-02-28T15:31:55;12.84;45.73
69503;SHT31;56704;54.242;12.442;2023-02-28T15:34:27;12.76;45.44
69503;SHT31;56704;54.242;12.442;2023-02-28T15:36:55;12.59;47.30
69503;SHT31;56704;54.242;12.442;2023-02-28T15:39:24;12.97;46.88
69503;SHT31;56704;54.242;12.442;2023-02-28T15:41:55;12.89;46.47
69503;SHT31;56704;54.242;12.442;2023-02-28T15:44:36;13.04;46.44
69503;SHT31;56704;54.242;12.442;2023-02-28T15:47:04;12.96;45.27
69503;SHT31;56704;54.242;12.442;2023-02-28T15:49:39;12.33;45.35
69503;SHT31;56704;54.242;12.442;2023-02-28T15:52:12;11.84;47.17
69503;SHT31;56704;54.242;12.442;2023-02-28T15:54:40;11.59;48.02